createdAt,value
2019-03-26T00:00:15.828Z,991.76
2019-03-26T00:01:15.808Z,991.72
2019-03-26T00:02:15.801Z,991.74
2019-03-26T00:03:15.788Z,991.77
2019-03-26T00:04:15.779Z,991.73
2019-03-26T00:05:15.809Z,991.71
2019-03-26T00:06:15.751Z,991.78
2019-03-26T00:07:15.739Z,991.72
2019-03-26T00:08:15.754Z,991.79
2019-03-26T00:09:15.720Z,991.71
2019-03-26T00:10:15.705Z,991.78
2019-03-26T00:11:15.737Z,991.76
2019-03-26T00:12:21.775Z,991.77
2019-03-26T00:13:15.671Z,991.74
2019-03-26T00:14:15.667Z,991.76
2019-03-26T00:15:15.649Z,991.69
2019-03-26T00:16:15.646Z,991.74
2019-03-26T00:17:15.637Z,991.74
2019-03-26T00:18:15.617Z,991.79
2019-03-26T00:19:15.603Z,991.73
2019-03-26T00:20:15.588Z,991.74
2019-03-26T00:21:15.591Z,991.76
2019-03-26T00:22:15.569Z,991.73
2019-03-26T00:23:15.552Z,991.77
2019-03-26T00:24:15.543Z,991.76
2019-03-26T00:25:15.533Z,991.71
2019-03-26T00:26:15.539Z,991.73
2019-03-26T00:27:15.512Z,991.69
2019-03-26T00:28:15.495Z,991.72
2019-03-26T00:29:15.483Z,991.73
2019-03-26T00:30:15.477Z,991.74
2019-03-26T00:31:15.466Z,991.69
2019-03-26T00:32:15.459Z,991.75
2019-03-26T00:33:15.441Z,991.74
2019-03-26T00:34:19.571Z,991.74
2019-03-26T00:35:15.417Z,991.73
2019-03-26T00:36:15.406Z,991.81
2019-03-26T00:37:15.403Z,991.80
2019-03-26T00:38:15.385Z,991.77
2019-03-26T00:39:15.365Z,991.70
2019-03-26T00:40:15.359Z,991.71
2019-03-26T00:41:15.343Z,991.77
2019-03-26T00:42:15.414Z,991.70
2019-03-26T00:43:15.356Z,991.74
2019-03-26T00:44:21.704Z,991.77
2019-03-26T00:45:15.298Z,991.75
2019-03-26T00:46:15.285Z,991.76
2019-03-26T00:47:15.277Z,991.78
2019-03-26T00:48:15.269Z,991.76
2019-03-26T00:49:15.260Z,991.73
2019-03-26T00:50:15.246Z,991.78
2019-03-26T00:51:15.231Z,991.78
2019-03-26T00:52:15.214Z,991.75
2019-03-26T00:53:15.206Z,991.75
2019-03-26T00:54:15.224Z,991.72
2019-03-26T00:55:22.535Z,991.78
2019-03-26T00:56:16.165Z,991.74
2019-03-26T00:57:15.155Z,991.82
2019-03-26T00:58:15.143Z,991.85
2019-03-26T00:59:15.138Z,991.76
2019-03-26T01:00:15.168Z,991.79
2019-03-26T01:01:15.112Z,991.79
2019-03-26T01:02:15.097Z,991.76
2019-03-26T01:03:15.095Z,991.79
2019-03-26T01:04:15.084Z,991.77
2019-03-26T01:05:15.066Z,991.78
2019-03-26T01:06:15.092Z,991.78
2019-03-26T01:07:15.049Z,991.77
2019-03-26T01:08:15.032Z,991.78
2019-03-26T01:09:15.020Z,991.79
2019-03-26T01:10:15.012Z,991.81
2019-03-26T01:11:15.001Z,991.79
2019-03-26T01:12:14.998Z,991.83
2019-03-26T01:13:14.992Z,991.76
2019-03-26T01:14:14.959Z,991.81
2019-03-26T01:15:14.954Z,991.85
2019-03-26T01:16:21.254Z,991.79
2019-03-26T01:17:14.925Z,991.78
2019-03-26T01:18:14.915Z,991.75
2019-03-26T01:19:14.906Z,991.82
2019-03-26T01:20:14.893Z,991.73
2019-03-26T01:21:14.885Z,991.77
2019-03-26T01:22:14.885Z,991.81
2019-03-26T01:23:14.863Z,991.85
2019-03-26T01:24:14.845Z,991.91
2019-03-26T01:25:14.834Z,991.87
2019-03-26T01:26:14.827Z,991.91
2019-03-26T01:27:14.814Z,991.94
2019-03-26T01:28:14.822Z,991.88
2019-03-26T01:29:14.791Z,991.94
2019-03-26T01:30:14.779Z,991.89
2019-03-26T01:31:14.763Z,991.87
2019-03-26T01:32:14.755Z,991.90
2019-03-26T01:33:14.739Z,991.85
2019-03-26T01:34:14.774Z,991.91
2019-03-26T01:35:14.724Z,991.86
2019-03-26T01:36:14.710Z,991.93
2019-03-26T01:37:14.702Z,991.88
2019-03-26T01:38:14.681Z,991.91
2019-03-26T01:39:14.681Z,991.92
2019-03-26T01:40:14.696Z,991.95
2019-03-26T01:41:14.654Z,991.90
2019-03-26T01:42:14.643Z,991.91
2019-03-26T01:43:14.626Z,991.93
2019-03-26T01:44:14.612Z,991.93
2019-03-26T01:45:14.603Z,991.89
2019-03-26T01:46:14.696Z,991.88
2019-03-26T01:47:14.583Z,991.87
2019-03-26T01:48:20.974Z,991.93
2019-03-26T01:49:14.562Z,991.85
2019-03-26T01:50:14.548Z,991.92
2019-03-26T01:51:14.531Z,991.90
2019-03-26T01:52:14.535Z,991.97
2019-03-26T01:53:14.513Z,991.85
2019-03-26T01:54:14.496Z,991.90
2019-03-26T01:55:14.495Z,991.92
2019-03-26T01:56:14.476Z,991.95
2019-03-26T01:57:14.559Z,991.94
2019-03-26T01:58:14.459Z,991.94
2019-03-26T01:59:14.445Z,991.95
2019-03-26T02:00:14.427Z,991.97
2019-03-26T02:01:14.421Z,991.97
2019-03-26T02:02:14.412Z,991.96
2019-03-26T02:03:14.433Z,991.98
2019-03-26T02:04:14.384Z,991.94
2019-03-26T02:05:14.373Z,991.95
2019-03-26T02:06:14.362Z,991.94
2019-03-26T02:07:14.349Z,991.90
2019-03-26T02:08:14.333Z,991.98
2019-03-26T02:09:14.330Z,991.92
2019-03-26T02:10:14.317Z,991.96
2019-03-26T02:11:14.301Z,991.92
2019-03-26T02:12:14.296Z,991.97
2019-03-26T02:13:14.281Z,991.96
2019-03-26T02:14:14.289Z,991.96
2019-03-26T02:15:14.256Z,991.93
2019-03-26T02:16:14.247Z,991.99
2019-03-26T02:17:14.234Z,992.00
2019-03-26T02:18:14.220Z,992.00
2019-03-26T02:19:14.212Z,992.01
2019-03-26T02:20:20.781Z,991.99
2019-03-26T02:21:14.192Z,991.91
2019-03-26T02:22:14.179Z,991.97
2019-03-26T02:23:14.166Z,991.95
2019-03-26T02:24:14.157Z,991.95
2019-03-26T02:25:14.139Z,991.89
2019-03-26T02:26:14.165Z,991.96
2019-03-26T02:27:14.112Z,991.90
2019-03-26T02:28:14.103Z,991.97
2019-03-26T02:29:14.089Z,991.95
2019-03-26T02:30:14.085Z,991.98
2019-03-26T02:31:14.072Z,991.91
2019-03-26T02:32:14.077Z,991.98
2019-03-26T02:33:14.049Z,991.98
2019-03-26T02:34:14.038Z,991.97
2019-03-26T02:35:18.354Z,991.94
2019-03-26T02:36:14.009Z,991.99
2019-03-26T02:37:13.999Z,991.99
2019-03-26T02:38:14.001Z,991.94
2019-03-26T02:39:13.973Z,991.96
2019-03-26T02:40:13.965Z,991.98
2019-03-26T02:41:13.951Z,991.93
2019-03-26T02:42:13.962Z,991.93
2019-03-26T02:43:13.928Z,991.89
2019-03-26T02:44:13.926Z,991.93
2019-03-26T02:45:13.909Z,991.87
2019-03-26T02:46:13.899Z,991.92
2019-03-26T02:47:13.883Z,991.89
2019-03-26T02:48:13.889Z,991.91
2019-03-26T02:49:13.868Z,991.98
2019-03-26T02:50:13.847Z,992.00
2019-03-26T02:51:13.837Z,991.90
2019-03-26T02:52:20.214Z,991.91
2019-03-26T02:53:13.857Z,991.93
2019-03-26T02:54:13.806Z,991.92
2019-03-26T02:55:13.912Z,991.92
2019-03-26T02:56:13.786Z,991.91
2019-03-26T02:57:13.774Z,991.94
2019-03-26T02:58:13.759Z,991.94
2019-03-26T02:59:13.777Z,991.89
2019-03-26T03:00:13.737Z,991.90
2019-03-26T03:01:13.717Z,991.95
2019-03-26T03:02:13.707Z,991.92
2019-03-26T03:03:13.698Z,991.91
2019-03-26T03:04:13.682Z,991.92
2019-03-26T03:05:13.681Z,991.90
2019-03-26T03:06:13.660Z,991.93
2019-03-26T03:07:13.651Z,991.90
2019-03-26T03:08:13.647Z,991.93
2019-03-26T03:09:13.661Z,991.97
2019-03-26T03:10:13.612Z,991.95
2019-03-26T03:11:13.601Z,992.01
2019-03-26T03:12:13.594Z,991.91
2019-03-26T03:13:13.581Z,991.92
2019-03-26T03:14:13.571Z,991.91
2019-03-26T03:15:13.599Z,991.98
2019-03-26T03:16:13.547Z,992.00
2019-03-26T03:17:13.539Z,992.03
2019-03-26T03:18:13.524Z,991.93
2019-03-26T03:19:15.838Z,992.03
2019-03-26T03:20:13.497Z,992.06
2019-03-26T03:21:13.530Z,992.01
2019-03-26T03:22:13.485Z,991.99
2019-03-26T03:23:13.492Z,992.03
2019-03-26T03:24:19.546Z,991.97
2019-03-26T03:25:13.445Z,991.96
2019-03-26T03:26:13.433Z,991.97
2019-03-26T03:27:13.476Z,991.96
2019-03-26T03:28:13.406Z,991.99
2019-03-26T03:29:13.394Z,991.95
2019-03-26T03:30:13.394Z,992.00
2019-03-26T03:31:13.370Z,991.93
2019-03-26T03:32:13.360Z,992.00
2019-03-26T03:33:13.391Z,992.01
2019-03-26T03:34:13.338Z,992.00
2019-03-26T03:35:13.348Z,991.95
2019-03-26T03:36:13.315Z,992.05
2019-03-26T03:37:13.297Z,992.03
2019-03-26T03:38:13.293Z,991.99
2019-03-26T03:39:13.298Z,991.99
2019-03-26T03:40:13.372Z,991.99
2019-03-26T03:41:13.257Z,992.03
2019-03-26T03:42:13.270Z,991.96
2019-03-26T03:43:13.232Z,992.03
2019-03-26T03:44:13.217Z,992.01
2019-03-26T03:45:13.237Z,992.02
2019-03-26T03:46:13.191Z,991.99
2019-03-26T03:47:13.197Z,992.01
2019-03-26T03:48:13.176Z,991.97
2019-03-26T03:49:13.159Z,991.98
2019-03-26T03:50:13.315Z,991.99
2019-03-26T03:51:13.137Z,991.92
2019-03-26T03:52:13.124Z,991.99
2019-03-26T03:53:13.120Z,991.96
2019-03-26T03:54:13.102Z,992.01
2019-03-26T03:55:13.799Z,991.98
2019-03-26T03:56:19.857Z,991.94
2019-03-26T03:57:13.063Z,991.86
2019-03-26T03:58:13.053Z,991.91
2019-03-26T03:59:13.048Z,991.95
2019-03-26T04:00:13.035Z,991.95
2019-03-26T04:01:13.017Z,991.95
2019-03-26T04:02:13.049Z,991.93
2019-03-26T04:03:13.001Z,991.92
2019-03-26T04:04:12.988Z,991.93
2019-03-26T04:05:13.104Z,991.92
2019-03-26T04:06:12.963Z,991.94
2019-03-26T04:07:12.952Z,992.07
2019-03-26T04:08:13.109Z,991.97
2019-03-26T04:09:12.932Z,991.96
2019-03-26T04:10:12.913Z,991.98
2019-03-26T04:11:12.904Z,991.95
2019-03-26T04:12:12.897Z,991.96
2019-03-26T04:13:12.881Z,992.06
2019-03-26T04:14:12.909Z,991.96
2019-03-26T04:15:12.865Z,991.91
2019-03-26T04:16:12.847Z,992.06
2019-03-26T04:17:12.838Z,992.07
2019-03-26T04:18:12.821Z,992.01
2019-03-26T04:19:12.811Z,991.98
2019-03-26T04:20:12.810Z,992.04
2019-03-26T04:21:12.803Z,992.01
2019-03-26T04:22:12.793Z,992.01
2019-03-26T04:23:12.765Z,992.01
2019-03-26T04:24:12.805Z,992.03
2019-03-26T04:25:12.742Z,992.04
2019-03-26T04:26:12.726Z,992.07
2019-03-26T04:27:12.719Z,992.09
2019-03-26T04:28:19.098Z,992.03
2019-03-26T04:29:12.691Z,992.06
2019-03-26T04:30:12.693Z,992.04
2019-03-26T04:31:12.670Z,992.19
2019-03-26T04:32:12.661Z,992.05
2019-03-26T04:33:12.652Z,992.07
2019-03-26T04:34:12.635Z,992.05
2019-03-26T04:35:12.874Z,992.03
2019-03-26T04:36:24.729Z,992.04
2019-03-26T04:37:13.608Z,992.13
2019-03-26T04:38:12.587Z,992.04
2019-03-26T04:39:12.585Z,992.03
2019-03-26T04:40:12.591Z,992.09
2019-03-26T04:41:12.666Z,992.07
2019-03-26T04:42:12.547Z,992.07
2019-03-26T04:43:12.534Z,992.06
2019-03-26T04:44:12.524Z,992.07
2019-03-26T04:45:12.508Z,992.09
2019-03-26T04:46:12.492Z,992.02
2019-03-26T04:47:12.539Z,992.05
2019-03-26T04:48:12.469Z,992.09
2019-03-26T04:49:12.463Z,992.08
2019-03-26T04:50:12.445Z,992.14
2019-03-26T04:51:12.443Z,992.09
2019-03-26T04:52:12.425Z,992.09
2019-03-26T04:53:12.420Z,992.13
2019-03-26T04:54:12.405Z,992.15
2019-03-26T04:55:12.391Z,992.18
2019-03-26T04:56:12.381Z,992.23
2019-03-26T04:57:12.365Z,992.22
2019-03-26T04:58:12.376Z,992.20
2019-03-26T04:59:12.345Z,992.18
2019-03-26T05:00:18.434Z,992.28
2019-03-26T05:01:12.326Z,992.20
2019-03-26T05:02:12.313Z,992.21
2019-03-26T05:03:12.296Z,992.21
2019-03-26T05:04:12.298Z,992.22
2019-03-26T05:05:12.648Z,992.22
2019-03-26T05:06:12.265Z,992.23
2019-03-26T05:07:12.255Z,992.22
2019-03-26T05:08:12.238Z,992.27
2019-03-26T05:09:12.246Z,992.24
2019-03-26T05:10:12.220Z,992.17
2019-03-26T05:11:12.209Z,992.23
2019-03-26T05:12:12.196Z,992.27
2019-03-26T05:13:12.186Z,992.21
2019-03-26T05:14:12.170Z,992.24
2019-03-26T05:15:12.197Z,992.23
2019-03-26T05:16:12.153Z,992.24
2019-03-26T05:17:12.134Z,992.25
2019-03-26T05:18:12.124Z,992.22
2019-03-26T05:19:12.111Z,992.26
2019-03-26T05:20:12.098Z,992.26
2019-03-26T05:21:12.122Z,992.23
2019-03-26T05:22:23.458Z,992.26
2019-03-26T05:23:13.061Z,992.22
2019-03-26T05:24:12.054Z,992.22
2019-03-26T05:25:12.039Z,992.28
2019-03-26T05:26:12.035Z,992.28
2019-03-26T05:27:12.029Z,992.28
2019-03-26T05:28:12.003Z,992.25
2019-03-26T05:29:11.998Z,992.29
2019-03-26T05:30:11.981Z,992.29
2019-03-26T05:31:11.972Z,992.31
2019-03-26T05:32:18.370Z,992.27
2019-03-26T05:33:11.966Z,992.29
2019-03-26T05:34:11.933Z,992.29
2019-03-26T05:35:12.018Z,992.33
2019-03-26T05:36:11.910Z,992.34
2019-03-26T05:37:11.901Z,992.30
2019-03-26T05:38:11.895Z,992.24
2019-03-26T05:39:11.886Z,992.19
2019-03-26T05:40:11.870Z,992.25
2019-03-26T05:41:11.853Z,992.33
2019-03-26T05:42:11.843Z,992.30
2019-03-26T05:43:11.829Z,992.27
2019-03-26T05:44:11.827Z,992.29
2019-03-26T05:45:11.803Z,992.26
2019-03-26T05:46:11.794Z,992.29
2019-03-26T05:47:11.790Z,992.34
2019-03-26T05:48:11.773Z,992.35
2019-03-26T05:49:11.765Z,992.37
2019-03-26T05:50:11.791Z,992.33
2019-03-26T05:51:11.742Z,992.36
2019-03-26T05:52:11.725Z,992.35
2019-03-26T05:53:11.718Z,992.35
2019-03-26T05:54:11.785Z,992.39
2019-03-26T05:55:11.692Z,992.47
2019-03-26T05:56:11.698Z,992.46
2019-03-26T05:57:11.664Z,992.39
2019-03-26T05:58:11.659Z,992.39
2019-03-26T05:59:11.647Z,992.45
2019-03-26T06:00:11.781Z,992.55
2019-03-26T06:01:11.659Z,992.42
2019-03-26T06:02:15.264Z,992.52
2019-03-26T06:03:12.595Z,992.49
2019-03-26T06:04:17.677Z,992.55
2019-03-26T06:05:11.573Z,992.60
2019-03-26T06:06:11.565Z,992.44
2019-03-26T06:07:11.602Z,992.54
2019-03-26T06:08:11.536Z,992.56
2019-03-26T06:09:11.527Z,992.49
2019-03-26T06:10:11.519Z,992.53
2019-03-26T06:11:11.507Z,992.52
2019-03-26T06:12:11.489Z,992.57
2019-03-26T06:13:11.504Z,992.56
2019-03-26T06:14:11.476Z,992.53
2019-03-26T06:15:11.460Z,992.51
2019-03-26T06:16:11.447Z,992.54
2019-03-26T06:17:11.439Z,992.51
2019-03-26T06:18:11.420Z,992.55
2019-03-26T06:19:11.429Z,992.51
2019-03-26T06:20:11.414Z,992.55
2019-03-26T06:21:11.387Z,992.53
2019-03-26T06:22:11.374Z,992.54
2019-03-26T06:23:11.366Z,992.50
2019-03-26T06:24:11.367Z,992.61
2019-03-26T06:25:11.346Z,992.58
2019-03-26T06:26:11.331Z,992.61
2019-03-26T06:27:11.318Z,992.59
2019-03-26T06:28:11.313Z,992.56
2019-03-26T06:29:11.294Z,992.60
2019-03-26T06:30:11.323Z,992.61
2019-03-26T06:31:11.275Z,992.60
2019-03-26T06:32:11.257Z,992.67
2019-03-26T06:33:11.250Z,992.68
2019-03-26T06:34:11.238Z,992.74
2019-03-26T06:35:11.229Z,992.71
2019-03-26T06:36:17.431Z,992.78
2019-03-26T06:37:17.808Z,992.75
2019-03-26T06:38:12.192Z,992.72
2019-03-26T06:39:11.216Z,992.74
2019-03-26T06:40:11.167Z,992.74
2019-03-26T06:41:11.154Z,992.78
2019-03-26T06:42:11.178Z,992.81
2019-03-26T06:43:11.132Z,992.77
2019-03-26T06:44:11.126Z,992.80
2019-03-26T06:45:11.106Z,992.82
2019-03-26T06:46:11.102Z,992.91
2019-03-26T06:47:11.083Z,992.81
2019-03-26T06:48:11.084Z,992.91
2019-03-26T06:49:11.060Z,992.86
2019-03-26T06:50:11.051Z,992.82
2019-03-26T06:51:11.043Z,992.80
2019-03-26T06:52:11.038Z,992.88
2019-03-26T06:53:11.049Z,992.79
2019-03-26T06:54:11.003Z,992.81
2019-03-26T06:55:10.989Z,992.94
2019-03-26T06:56:10.984Z,992.78
2019-03-26T06:57:10.972Z,992.93
2019-03-26T06:58:10.956Z,992.86
2019-03-26T06:59:10.960Z,992.89
2019-03-26T07:00:10.939Z,993.02
2019-03-26T07:01:10.923Z,993.04
2019-03-26T07:02:10.908Z,992.97
2019-03-26T07:03:10.896Z,992.99
2019-03-26T07:04:10.906Z,992.98
2019-03-26T07:05:10.874Z,993.08
2019-03-26T07:06:10.866Z,992.94
2019-03-26T07:07:10.851Z,993.02
2019-03-26T07:08:17.232Z,992.98
2019-03-26T07:09:10.869Z,992.98
2019-03-26T07:10:10.816Z,992.99
2019-03-26T07:11:10.803Z,993.06
2019-03-26T07:12:10.793Z,993.06
2019-03-26T07:13:10.783Z,993.05
2019-03-26T07:14:10.777Z,993.12
2019-03-26T07:15:10.802Z,993.04
2019-03-26T07:16:10.747Z,993.08
2019-03-26T07:17:11.403Z,993.10
2019-03-26T07:18:10.731Z,993.15
2019-03-26T07:19:10.714Z,993.21
2019-03-26T07:20:10.697Z,993.22
2019-03-26T07:21:10.698Z,993.20
2019-03-26T07:22:10.675Z,993.20
2019-03-26T07:23:10.667Z,993.21
2019-03-26T07:24:10.661Z,993.26
2019-03-26T07:25:10.640Z,993.19
2019-03-26T07:26:10.671Z,993.23
2019-03-26T07:27:10.621Z,993.22
2019-03-26T07:28:10.608Z,993.31
2019-03-26T07:29:10.600Z,993.25
2019-03-26T07:30:10.591Z,993.26
2019-03-26T07:31:10.575Z,993.27
2019-03-26T07:32:10.613Z,993.34
2019-03-26T07:33:10.552Z,993.28
2019-03-26T07:34:10.541Z,993.22
2019-03-26T07:35:10.525Z,993.29
2019-03-26T07:36:10.513Z,993.36
2019-03-26T07:37:10.503Z,993.36
2019-03-26T07:38:10.526Z,993.33
2019-03-26T07:39:10.482Z,993.31
2019-03-26T07:40:16.855Z,993.34
2019-03-26T07:41:10.457Z,993.35
2019-03-26T07:42:10.451Z,993.30
2019-03-26T07:43:10.436Z,993.32
2019-03-26T07:44:10.435Z,993.35
2019-03-26T07:45:10.412Z,993.49
2019-03-26T07:46:10.405Z,993.42
2019-03-26T07:47:10.387Z,993.48
2019-03-26T07:48:10.376Z,993.38
2019-03-26T07:49:10.400Z,993.46
2019-03-26T07:50:10.350Z,993.58
2019-03-26T07:51:10.336Z,993.58
2019-03-26T07:52:10.330Z,993.48
2019-03-26T07:53:10.323Z,993.47
2019-03-26T07:54:10.303Z,993.53
2019-03-26T07:55:10.304Z,993.52
2019-03-26T07:56:10.281Z,993.59
2019-03-26T07:57:10.271Z,993.56
2019-03-26T07:58:10.261Z,993.59
2019-03-26T07:59:10.245Z,993.63
2019-03-26T08:00:10.278Z,993.55
2019-03-26T08:01:10.228Z,993.59
2019-03-26T08:02:10.217Z,993.57
2019-03-26T08:03:10.198Z,993.57
2019-03-26T08:04:12.545Z,993.60
2019-03-26T08:05:10.179Z,993.60
2019-03-26T08:06:10.188Z,993.76
2019-03-26T08:07:10.155Z,993.74
2019-03-26T08:08:10.145Z,993.70
2019-03-26T08:09:10.172Z,993.73
2019-03-26T08:10:10.125Z,993.75
2019-03-26T08:11:10.109Z,993.75
2019-03-26T08:12:17.951Z,993.77
2019-03-26T08:13:10.166Z,993.78
2019-03-26T08:14:10.110Z,993.79
2019-03-26T08:15:10.069Z,993.81
2019-03-26T08:16:10.053Z,993.81
2019-03-26T08:17:10.074Z,993.85
2019-03-26T08:18:10.030Z,993.84
2019-03-26T08:19:10.019Z,993.91
2019-03-26T08:20:12.452Z,993.94
2019-03-26T08:21:09.991Z,993.95
2019-03-26T08:22:09.993Z,994.00
2019-03-26T08:23:09.979Z,994.00
2019-03-26T08:24:09.954Z,993.99
2019-03-26T08:25:09.948Z,994.05
2019-03-26T08:26:09.934Z,994.03
2019-03-26T08:27:09.949Z,994.02
2019-03-26T08:28:09.924Z,994.02
2019-03-26T08:29:09.913Z,994.04
2019-03-26T08:30:09.890Z,994.07
2019-03-26T08:31:09.873Z,994.02
2019-03-26T08:32:09.869Z,994.00
2019-03-26T08:33:09.859Z,994.16
2019-03-26T08:34:09.880Z,993.99
2019-03-26T08:35:09.835Z,994.20
2019-03-26T08:36:09.824Z,994.09
2019-03-26T08:37:09.811Z,994.09
2019-03-26T08:38:12.807Z,994.13
2019-03-26T08:39:09.787Z,994.16
2019-03-26T08:40:09.920Z,994.14
2019-03-26T08:41:09.770Z,994.12
2019-03-26T08:42:09.745Z,994.20
2019-03-26T08:43:09.740Z,994.23
2019-03-26T08:44:15.823Z,994.15
2019-03-26T08:45:09.718Z,994.25
2019-03-26T08:46:09.721Z,994.21
2019-03-26T08:47:09.695Z,994.18
2019-03-26T08:48:09.732Z,994.24
2019-03-26T08:49:09.683Z,994.31
2019-03-26T08:50:09.653Z,994.23
2019-03-26T08:51:09.645Z,994.24
2019-03-26T08:52:09.647Z,994.21
2019-03-26T08:53:09.617Z,994.30
2019-03-26T08:54:09.606Z,994.27
2019-03-26T08:55:09.602Z,994.29
2019-03-26T08:56:09.642Z,994.33
2019-03-26T08:57:09.575Z,994.28
2019-03-26T08:58:09.559Z,994.32
2019-03-26T08:59:09.554Z,994.33
2019-03-26T09:00:09.545Z,994.40
2019-03-26T09:01:09.533Z,994.29
2019-03-26T09:02:09.523Z,994.38
2019-03-26T09:03:09.506Z,994.33
2019-03-26T09:04:09.493Z,994.34
2019-03-26T09:05:09.482Z,994.39
2019-03-26T09:06:09.466Z,994.38
2019-03-26T09:07:11.048Z,994.37
2019-03-26T09:08:09.446Z,994.38
2019-03-26T09:09:09.438Z,994.38
2019-03-26T09:10:09.425Z,994.34
2019-03-26T09:11:09.411Z,994.35
2019-03-26T09:12:09.398Z,994.40
2019-03-26T09:13:09.428Z,994.43
2019-03-26T09:14:09.374Z,994.36
2019-03-26T09:15:09.362Z,994.48
2019-03-26T09:16:15.444Z,994.38
2019-03-26T09:17:09.337Z,994.48
2019-03-26T09:18:09.342Z,994.47
2019-03-26T09:19:09.321Z,994.55
2019-03-26T09:20:09.305Z,994.49
2019-03-26T09:21:09.292Z,994.52
2019-03-26T09:22:09.280Z,994.48
2019-03-26T09:23:12.145Z,994.55
2019-03-26T09:24:09.278Z,994.57
2019-03-26T09:25:09.247Z,994.65
2019-03-26T09:26:09.239Z,994.59
2019-03-26T09:27:09.227Z,994.66
2019-03-26T09:28:09.216Z,994.55
2019-03-26T09:29:09.199Z,994.67
2019-03-26T09:30:09.203Z,994.81
2019-03-26T09:31:09.174Z,994.83
2019-03-26T09:32:09.254Z,994.70
2019-03-26T09:33:09.162Z,994.70
2019-03-26T09:34:10.078Z,994.73
2019-03-26T09:35:09.134Z,994.73
2019-03-26T09:36:09.122Z,994.72
2019-03-26T09:37:09.108Z,994.79
2019-03-26T09:38:09.107Z,994.71
2019-03-26T09:39:09.085Z,994.76
2019-03-26T09:40:09.074Z,994.76
2019-03-26T09:41:09.061Z,994.77
2019-03-26T09:42:09.052Z,994.78
2019-03-26T09:43:09.056Z,994.73
2019-03-26T09:44:09.029Z,994.72
2019-03-26T09:45:09.015Z,994.78
2019-03-26T09:46:09.005Z,994.77
2019-03-26T09:47:16.171Z,994.76
2019-03-26T09:49:17.879Z,994.77
2019-03-26T09:50:17.844Z,994.78
2019-03-26T09:51:17.835Z,994.78
2019-03-26T09:52:17.820Z,994.81
2019-03-26T09:53:17.813Z,994.82
2019-03-26T09:54:17.795Z,994.87
2019-03-26T09:55:17.795Z,994.84
2019-03-26T09:56:28.312Z,994.94
2019-03-26T09:57:18.764Z,994.89
2019-03-26T09:58:17.756Z,994.86
2019-03-26T09:59:17.759Z,994.93
2019-03-26T10:00:17.725Z,994.96
2019-03-26T10:01:17.712Z,994.96
2019-03-26T10:02:17.701Z,995.02
2019-03-26T10:03:17.695Z,994.95
2019-03-26T10:04:17.679Z,995.03
2019-03-26T10:05:17.679Z,995.05
2019-03-26T10:06:23.223Z,995.07
2019-03-26T10:07:21.687Z,995.25
2019-03-26T10:08:18.103Z,995.13
2019-03-26T10:09:17.623Z,995.10
2019-03-26T10:10:17.617Z,995.18
2019-03-26T10:11:17.600Z,995.13
2019-03-26T10:12:17.592Z,995.15
2019-03-26T10:13:17.577Z,995.14
2019-03-26T10:14:17.565Z,995.16
2019-03-26T10:15:17.593Z,995.16
2019-03-26T10:16:17.545Z,995.23
2019-03-26T10:17:17.528Z,995.28
2019-03-26T10:18:17.526Z,995.26
2019-03-26T10:19:17.508Z,995.30
2019-03-26T10:20:23.974Z,995.24
2019-03-26T10:21:17.489Z,995.31
2019-03-26T10:22:19.948Z,995.30
2019-03-26T10:23:17.466Z,995.30
2019-03-26T10:24:17.454Z,995.41
2019-03-26T10:25:17.441Z,995.41
2019-03-26T10:26:17.435Z,995.49
2019-03-26T10:27:17.414Z,995.39
2019-03-26T10:28:17.405Z,995.43
2019-03-26T10:29:29.668Z,995.34
2019-03-26T10:30:18.382Z,995.38
2019-03-26T10:31:17.413Z,995.39
2019-03-26T10:32:17.362Z,995.41
2019-03-26T10:33:17.345Z,995.38
2019-03-26T10:34:17.333Z,995.43
2019-03-26T10:35:17.326Z,995.48
2019-03-26T10:36:17.315Z,995.55
2019-03-26T10:37:17.407Z,995.52
2019-03-26T10:38:17.292Z,995.54
2019-03-26T10:39:17.288Z,995.52
2019-03-26T10:40:17.263Z,995.52
2019-03-26T10:41:18.717Z,995.53
2019-03-26T10:42:17.242Z,995.51
2019-03-26T10:43:17.253Z,995.52
2019-03-26T10:44:17.223Z,995.54
2019-03-26T10:45:17.214Z,995.63
2019-03-26T10:46:17.197Z,995.60
2019-03-26T10:47:17.185Z,995.66
2019-03-26T10:48:17.185Z,995.61
2019-03-26T10:49:17.188Z,995.60
2019-03-26T10:50:17.152Z,995.66
2019-03-26T10:51:17.139Z,995.66
2019-03-26T10:52:23.218Z,995.70
2019-03-26T10:53:17.182Z,995.64
2019-03-26T10:54:17.105Z,995.71
2019-03-26T10:55:17.098Z,995.74
2019-03-26T10:56:17.083Z,995.73
2019-03-26T10:57:17.073Z,995.77
2019-03-26T10:58:17.058Z,995.81
2019-03-26T10:59:17.088Z,995.70
2019-03-26T11:00:17.042Z,995.74
2019-03-26T11:01:17.023Z,995.71
2019-03-26T11:02:17.018Z,995.75
2019-03-26T11:03:17.003Z,995.91
2019-03-26T11:04:16.988Z,995.87
2019-03-26T11:05:17.021Z,995.83
2019-03-26T11:06:17.031Z,995.84
2019-03-26T11:07:16.955Z,995.94
2019-03-26T11:08:16.948Z,995.88
2019-03-26T11:09:24.182Z,996.09
2019-03-26T11:10:17.932Z,995.92
2019-03-26T11:11:16.926Z,996.10
2019-03-26T11:12:16.898Z,995.96
2019-03-26T11:13:16.892Z,996.04
2019-03-26T11:14:16.873Z,996.01
2019-03-26T11:15:16.866Z,996.09
2019-03-26T11:16:16.858Z,996.14
2019-03-26T11:17:16.862Z,996.08
2019-03-26T11:18:16.833Z,996.08
2019-03-26T11:19:16.827Z,996.08
2019-03-26T11:20:16.845Z,996.09
2019-03-26T11:21:16.792Z,996.09
2019-03-26T11:22:16.787Z,996.06
2019-03-26T11:23:16.809Z,996.06
2019-03-26T11:24:23.171Z,996.04
2019-03-26T11:25:16.752Z,996.07
2019-03-26T11:26:16.740Z,996.07
2019-03-26T11:27:16.733Z,996.06
2019-03-26T11:28:16.713Z,996.10
2019-03-26T11:29:16.747Z,996.05
2019-03-26T11:30:16.689Z,996.13
2019-03-26T11:31:16.676Z,996.13
2019-03-26T11:32:16.669Z,996.24
2019-03-26T11:33:16.657Z,996.18
2019-03-26T11:34:16.643Z,996.20
2019-03-26T11:35:16.647Z,996.22
2019-03-26T11:36:16.622Z,996.18
2019-03-26T11:37:16.611Z,996.24
2019-03-26T11:38:18.475Z,996.25
2019-03-26T11:39:16.622Z,996.35
2019-03-26T11:40:16.577Z,996.28
2019-03-26T11:41:16.563Z,996.26
2019-03-26T11:42:16.552Z,996.33
2019-03-26T11:43:16.538Z,996.33
2019-03-26T11:44:16.532Z,996.39
2019-03-26T11:45:16.558Z,996.38
2019-03-26T11:46:16.503Z,996.43
2019-03-26T11:47:16.497Z,996.40
2019-03-26T11:48:16.481Z,996.40
2019-03-26T11:49:16.469Z,996.49
2019-03-26T11:50:16.458Z,996.48
2019-03-26T11:51:16.458Z,996.56
2019-03-26T11:52:16.438Z,996.59
2019-03-26T11:53:16.426Z,996.50
2019-03-26T11:54:16.411Z,996.62
2019-03-26T11:55:16.406Z,996.56
2019-03-26T11:56:22.504Z,996.68
2019-03-26T11:57:16.377Z,996.63
2019-03-26T11:58:29.538Z,996.74
2019-03-26T11:59:17.361Z,996.68
2019-03-26T12:00:16.347Z,996.70
2019-03-26T12:01:16.361Z,996.73
2019-03-26T12:02:16.354Z,996.71
2019-03-26T12:03:16.316Z,996.75
2019-03-26T12:04:16.298Z,996.74
2019-03-26T12:05:16.333Z,996.84
2019-03-26T12:06:16.279Z,996.82
2019-03-26T12:07:16.311Z,996.88
2019-03-26T12:08:16.255Z,996.84
2019-03-26T12:09:16.239Z,996.81
2019-03-26T12:10:16.230Z,996.91
2019-03-26T12:11:16.219Z,996.93
2019-03-26T12:12:16.204Z,996.97
2019-03-26T12:13:16.227Z,996.98
2019-03-26T12:14:16.185Z,996.91
2019-03-26T12:15:16.167Z,996.93
2019-03-26T12:16:16.158Z,996.98
2019-03-26T12:17:16.147Z,997.01
2019-03-26T12:18:16.132Z,996.97
2019-03-26T12:19:16.156Z,997.01
2019-03-26T12:20:16.126Z,997.07
2019-03-26T12:21:16.100Z,997.07
2019-03-26T12:22:16.087Z,997.03
2019-03-26T12:23:16.077Z,997.06
2019-03-26T12:24:16.107Z,997.09
2019-03-26T12:25:16.128Z,997.12
2019-03-26T12:26:16.042Z,997.08
2019-03-26T12:27:16.033Z,997.03
2019-03-26T12:28:22.104Z,997.02
2019-03-26T12:29:16.010Z,997.13